RA43 XUDS-UUBC

Flight info

Callsign RA43
Flight time N/A
Altitude 60000
Route DCT
Aircraft SU27/L-SFG/C

Departure

Time N/A
Airport XUDS

Arrival

Time 2026-05-06 13:41
Airport Grabtsevo Airport (UUBC)
Time Latitude Longitude Altitude Speed Heading
2026-05-06 13:19 56.31979 43.78625 272 ft 0 kts 81°
2026-05-06 13:19 56.31985 43.78673 271 ft 13 kts 76°
2026-05-06 13:20 56.32018 43.78908 272 ft 27 kts 75°
2026-05-06 13:20 56.32081 43.79317 271 ft 41 kts 75°
2026-05-06 13:20 56.32165 43.79895 271 ft 54 kts 75°
2026-05-06 13:20 56.32263 43.80518 271 ft 26 kts 85°
2026-05-06 13:21 56.32226 43.80591 271 ft 7 kts 164°
2026-05-06 13:21 56.32168 43.80624 271 ft 9 kts 163°
2026-05-06 13:21 56.32106 43.80655 273 ft 10 kts 165°
2026-05-06 13:21 56.32047 43.80645 273 ft 9 kts 251°
2026-05-06 13:22 56.31924 43.79809 271 ft 158 kts 255°
2026-05-06 13:22 56.31553 43.77008 1369 ft 245 kts 260°
2026-05-06 13:22 56.31279 43.73987 5590 ft 236 kts 263°
2026-05-06 13:22 56.31192 43.71365 10506 ft 176 kts 271°
2026-05-06 13:23 56.31126 43.68659 13522 ft 273 kts 260°
2026-05-06 13:23 56.30765 43.64522 14001 ft 400 kts 261°
2026-05-06 13:23 56.30304 43.58867 14614 ft 509 kts 242°
2026-05-06 13:23 56.28165 43.53323 16799 ft 568 kts 236°
2026-05-06 13:24 56.26151 43.48200 23224 ft 455 kts 237°
2026-05-06 13:24 56.24337 43.43479 29357 ft 453 kts 238°
2026-05-06 13:24 56.22467 43.38508 32705 ft 508 kts 237°
2026-05-06 13:24 56.20356 43.32965 33517 ft 570 kts 237°
2026-05-06 13:25 56.18018 43.26751 33065 ft 634 kts 238°
2026-05-06 13:25 56.15487 43.19695 31851 ft 703 kts 239°
2026-05-06 13:25 56.12784 43.12037 32051 ft 745 kts 239°
2026-05-06 13:25 56.09986 43.03979 32950 ft 773 kts 239°
2026-05-06 13:26 56.07132 42.95643 33897 ft 799 kts 240°
2026-05-06 13:26 56.04268 42.87053 34746 ft 830 kts 241°
2026-05-06 13:26 56.01290 42.77956 35635 ft 867 kts 240°
2026-05-06 13:26 55.98115 42.68504 36522 ft 908 kts 239°
2026-05-06 13:27 55.94733 42.58556 37557 ft 943 kts 239°
2026-05-06 13:27 55.91328 42.48502 38727 ft 971 kts 239°
2026-05-06 13:27 55.87755 42.37943 39690 ft 995 kts 239°
2026-05-06 13:27 55.85368 42.30897 40353 ft 1007 kts 239°
2026-05-06 13:28 55.80527 42.16620 41772 ft 1029 kts 239°
2026-05-06 13:28 55.76810 42.05675 42930 ft 1042 kts 239°
2026-05-06 13:28 55.73041 41.94593 44268 ft 1051 kts 239°
2026-05-06 13:28 55.69250 41.83465 45632 ft 1058 kts 239°
2026-05-06 13:29 55.65436 41.72283 46913 ft 1064 kts 239°
2026-05-06 13:29 55.61587 41.60999 46967 ft 1081 kts 239°
2026-05-06 13:29 55.57665 41.49499 46332 ft 1104 kts 239°
2026-05-06 13:29 55.54960 41.41620 45934 ft 1118 kts 239°
2026-05-06 13:30 55.50875 41.29755 45388 ft 1139 kts 239°
2026-05-06 13:30 55.46726 41.17723 44868 ft 1157 kts 239°
2026-05-06 13:30 55.42518 41.05539 44438 ft 1173 kts 239°
2026-05-06 13:30 55.38304 40.93131 44053 ft 1186 kts 240°
2026-05-06 13:31 55.34328 40.80373 43650 ft 1199 kts 243°
2026-05-06 13:31 55.30651 40.67145 43234 ft 1210 kts 245°
2026-05-06 13:31 55.27189 40.53865 43583 ft 1214 kts 245°
2026-05-06 13:31 55.23613 40.40254 44644 ft 1212 kts 245°
2026-05-06 13:32 55.20079 40.26864 45728 ft 1209 kts 245°
2026-05-06 13:32 55.16600 40.13713 46830 ft 1206 kts 245°
2026-05-06 13:32 55.13079 40.00454 47938 ft 1203 kts 245°
2026-05-06 13:32 55.09555 39.87209 49073 ft 1199 kts 245°
2026-05-06 13:33 55.06023 39.73983 49189 ft 1205 kts 245°
2026-05-06 13:33 55.02409 39.60531 49012 ft 1212 kts 244°
2026-05-06 13:33 54.98846 39.47480 50297 ft 1203 kts 244°
2026-05-06 13:33 54.95255 39.34434 52133 ft 1192 kts 244°
2026-05-06 13:34 54.91642 39.21456 53106 ft 1189 kts 244°
2026-05-06 13:34 54.88026 39.08569 53989 ft 1187 kts 244°
2026-05-06 13:34 54.84455 38.95813 56464 ft 1153 kts 244°
2026-05-06 13:34 54.81038 38.83452 61015 ft 1119 kts 244°
2026-05-06 13:35 54.77725 38.71473 65341 ft 1084 kts 244°
2026-05-06 13:35 54.74502 38.59841 68460 ft 1071 kts 244°
2026-05-06 13:35 54.71255 38.48212 68733 ft 1074 kts 244°
2026-05-06 13:36 54.64652 38.24880 67903 ft 1091 kts 244°
2026-05-06 13:36 54.61334 38.13249 64066 ft 1003 kts 243°
2026-05-06 13:36 54.58199 38.02466 46965 ft 1107 kts 242°
2026-05-06 13:36 54.54459 37.89398 39696 ft 1280 kts 243°
2026-05-06 13:37 54.50324 37.75700 36424 ft 1298 kts 243°
2026-05-06 13:37 54.46099 37.62273 29051 ft 1286 kts 242°
2026-05-06 13:37 54.42520 37.48593 14100 ft 1300 kts 265°
2026-05-06 13:37 54.44788 37.33240 7745 ft 1317 kts 296°
2026-05-06 13:38 54.46377 37.18962 7625 ft 1167 kts 272°
2026-05-06 13:38 54.46436 37.05677 6046 ft 1063 kts 269°
2026-05-06 13:38 54.45944 36.93580 5356 ft 979 kts 256°
2026-05-06 13:38 54.44331 36.82527 5466 ft 933 kts 256°
2026-05-06 13:39 54.42687 36.71903 5150 ft 910 kts 256°
2026-05-06 13:39 54.41875 36.61242 4659 ft 896 kts 274°
2026-05-06 13:39 54.43368 36.51368 3176 ft 869 kts 322°
2026-05-06 13:39 54.47654 36.45995 1942 ft 494 kts 324°
2026-05-06 13:40 54.49831 36.44068 1657 ft 301 kts 319°
2026-05-06 13:40 54.51362 36.41781 1318 ft 285 kts 318°
2026-05-06 13:40 54.52683 36.39945 957 ft 208 kts 322°
2026-05-06 13:40 54.53650 36.38660 737 ft 172 kts 322°
2026-05-06 13:41 54.54275 36.37845 656 ft 157 kts 323°
2026-05-06 13:41 54.54807 36.37181 656 ft 44 kts 323°
2026-05-06 13:41 54.54894 36.37024 655 ft 13 kts 210°
2026-05-06 13:41 54.54797 36.36764 658 ft 26 kts 302°
2026-05-06 13:42 54.54817 36.36696 656 ft 0 kts 297°
2026-05-06 13:42 54.54859 36.36672 656 ft 16 kts 346°
2026-05-06 13:42 54.55045 36.36582 658 ft 38 kts 341°
2026-05-06 13:43 54.55288 36.36407 661 ft 32 kts 342°
2026-05-06 13:43 54.55433 36.36387 661 ft 8 kts
2026-05-06 13:43 54.55442 36.36424 662 ft 3 kts 117°
2026-05-06 13:43 54.55300 36.36586 659 ft 86 kts 145°
2026-05-06 13:44 54.54327 36.37778 655 ft 244 kts 144°
2026-05-06 13:44 54.53007 36.39326 2953 ft 94 kts 300°
2026-05-06 13:44 54.53291 36.38663 4325 ft 177 kts 290°
2026-05-06 13:44 54.53858 36.35925 3057 ft 138 kts 326°
2026-05-06 13:45 54.54700 36.34645 1597 ft 278 kts 327°